Time;durP1;ratioP1;P1;durP2;ratioP2;P2;SDS_P1;SDS_P2;PMS_P1;PMS_P2;Temp;Humidity;BMP_temperature;BMP_pressure;BME280_temperature;BME280_humidity;BME280_pressure;Samples;Min_cycle;Max_cycle;Signal;HPM_P1;HPM_P2
2021/11/17 02:26:45;;;;;;;11.40;9.45;;;;;;;17.12;56.76;101955.97;4826026;29;20051;-83
2021/11/17 02:29:55;;;;;;;10.82;9.45;;;;;;;17.12;56.83;101955.97;4810941;29;20041;-82
2021/11/17 02:32:51;;;;;;;11.82;9.60;;;;;;;17.13;56.97;101957.69;4805516;29;20157;-82
2021/11/17 02:35:16;;;;;;;11.70;9.70;;;;;;;17.12;56.74;101960.31;4794307;29;20104;-83
2021/11/17 02:37:50;;;;;;;13.63;9.40;;;;;;;17.12;56.68;101963.78;4824428;29;20030;-81
2021/11/17 02:41:01;;;;;;;11.52;9.65;;;;;;;17.12;56.78;101953.38;4824481;29;20091;-81
2021/11/17 02:44:10;;;;;;;12.23;9.02;;;;;;;17.13;56.75;101964.63;4803956;29;20045;-82
2021/11/17 02:46:42;;;;;;;11.95;9.90;;;;;;;17.12;56.80;101962.91;4808715;29;20049;-83
2021/11/17 02:49:32;;;;;;;10.48;9.27;;;;;;;17.12;56.75;101955.09;4809232;29;20038;-83
2021/11/17 02:52:22;;;;;;;11.95;9.70;;;;;;;17.12;56.88;101955.09;4825463;29;20122;-81
2021/11/17 02:55:17;;;;;;;10.63;9.43;;;;;;;17.12;56.83;101944.72;4809964;29;20030;-83
2021/11/17 02:58:09;;;;;;;12.23;9.75;;;;;;;17.11;56.95;101941.22;4820322;29;20038;-80
2021/11/17 03:00:53;;;;;;;10.30;9.10;;;;;;;17.12;56.58;101948.16;4795450;29;20144;-82
2021/11/17 03:03:41;;;;;;;11.43;9.85;;;;;;;17.12;56.75;101937.75;4824286;29;20031;-83
2021/11/17 03:06:12;;;;;;;11.25;9.80;;;;;;;17.11;56.73;101938.59;4824307;29;20061;-83
2021/11/17 03:09:03;;;;;;;11.15;9.90;;;;;;;17.11;56.77;101935.13;4824117;29;20091;-82
2021/11/17 03:11:59;;;;;;;11.13;9.73;;;;;;;17.12;56.66;101944.72;4781203;29;20041;-83
2021/11/17 03:15:04;;;;;;;12.27;10.05;;;;;;;17.11;56.80;101929.94;4824164;29;20041;-84
2021/11/17 03:17:57;;;;;;;11.48;9.57;;;;;;;17.11;56.56;101930.81;4824241;29;20026;-83
2021/11/17 03:20:29;;;;;;;12.68;10.45;;;;;;;17.11;56.80;101927.34;4824167;29;20381;-80
2021/11/17 03:23:21;;;;;;;12.60;10.30;;;;;;;17.10;56.64;101926.47;4809035;29;20472;-81
2021/11/17 03:26:09;;;;;;;14.43;9.32;;;;;;;17.12;56.50;101929.09;4810274;29;20042;-82
2021/11/17 03:28:34;;;;;;;11.13;9.10;;;;;;;17.10;56.78;101908.28;4810391;29;20124;-83
2021/11/17 03:31:18;;;;;;;11.07;9.68;;;;;;;17.11;56.67;101906.53;4815372;29;20584;-83
2021/11/17 03:33:56;;;;;;;10.93;9.40;;;;;;;17.10;56.53;101912.59;4805775;29;20098;-82
2021/11/17 03:36:52;;;;;;;12.48;10.02;;;;;;;17.09;56.41;101897.84;4805674;29;20027;-79
2021/11/17 03:39:39;;;;;;;10.95;9.38;;;;;;;17.09;56.64;101895.25;4805432;29;20031;-83
2021/11/17 03:42:13;;;;;;;11.00;9.65;;;;;;;17.10;56.58;101897.00;4776458;29;20034;-83
2021/11/17 03:44:57;;;;;;;11.30;9.38;;;;;;;17.10;56.73;101891.81;4805582;29;20560;-82
2021/11/17 03:47:47;;;;;;;10.38;9.23;;;;;;;17.09;56.74;101895.25;4805442;29;20388;-81
2021/11/17 03:50:42;;;;;;;11.07;9.68;;;;;;;17.10;56.70;101894.41;4791633;29;20050;-83
2021/11/17 03:53:29;;;;;;;11.35;9.43;;;;;;;17.09;56.63;101896.09;4801845;29;20471;-82
2021/11/17 03:56:33;;;;;;;10.52;9.38;;;;;;;17.10;56.90;101899.59;4775403;29;20492;-83
2021/11/17 03:59:27;;;;;;;10.70;9.20;;;;;;;17.10;56.61;101897.00;4804496;29;20107;-83
2021/11/17 04:02:22;;;;;;;10.77;9.38;;;;;;;17.09;56.55;101892.63;4775176;29;20106;-82
2021/11/17 04:05:00;;;;;;;11.48;9.82;;;;;;;17.09;56.48;101900.44;4798369;29;20069;-79
2021/11/17 04:07:53;;;;;;;10.60;9.50;;;;;;;17.09;56.71;101896.09;4790341;29;20117;-82
2021/11/17 04:10:30;;;;;;;11.48;10.10;;;;;;;17.09;56.87;101903.03;4775246;29;20031;-82
2021/11/17 04:12:59;;;;;;;11.02;9.50;;;;;;;17.08;56.49;101896.97;4790421;29;20510;-82
2021/11/17 04:16:02;;;;;;;12.18;9.77;;;;;;;17.08;56.79;101894.38;4805058;29;20122;-81
2021/11/17 04:18:36;;;;;;;11.65;9.88;;;;;;;17.08;56.35;101899.59;4805271;29;20369;-83
2021/11/17 04:21:24;;;;;;;10.85;9.15;;;;;;;17.08;56.58;101885.72;4805006;29;20126;-78
2021/11/17 04:23:58;;;;;;;10.45;9.13;;;;;;;17.06;56.65;101883.94;4791331;29;20023;-82
2021/11/17 04:26:34;;;;;;;11.85;9.85;;;;;;;17.08;56.51;101880.50;4804951;29;20084;-81
2021/11/17 04:29:33;;;;;;;12.43;10.43;;;;;;;17.07;56.56;101892.63;4790444;29;20030;-83
2021/11/17 04:32:14;;;;;;;10.20;9.00;;;;;;;17.07;56.59;101892.63;4808315;29;20050;-82
2021/11/17 04:35:09;;;;;;;11.23;9.80;;;;;;;17.08;56.51;101893.50;4813852;29;20411;-82
2021/11/17 04:37:58;;;;;;;11.48;10.02;;;;;;;17.08;56.59;101901.31;4827920;29;20381;-82
2021/11/17 04:40:37;;;;;;;10.75;9.43;;;;;;;17.07;56.54;101903.03;4794240;29;20088;-79
2021/11/17 04:43:05;;;;;;;10.50;9.40;;;;;;;17.08;56.66;101901.31;4808547;29;20023;-78
2021/11/17 04:45:49;;;;;;;12.20;9.88;;;;;;;17.08;56.63;101898.72;4827295;29;20049;-79
2021/11/17 04:48:30;;;;;;;11.32;9.82;;;;;;;17.06;56.31;101902.16;4823457;29;20440;-78
2021/11/17 04:51:14;;;;;;;11.55;9.43;;;;;;;17.08;56.66;101901.31;4807837;29;20031;-79
2021/11/17 04:53:52;;;;;;;12.07;9.25;;;;;;;17.06;56.51;101896.09;4823041;29;20119;-82
2021/11/17 04:56:36;;;;;;;10.48;8.88;;;;;;;17.07;56.68;101905.63;4823098;29;20030;-84
2021/11/17 04:59:38;;;;;;;11.00;9.60;;;;;;;17.06;56.64;101906.50;4810432;29;20121;-83
2021/11/17 05:02:28;;;;;;;10.95;9.77;;;;;;;17.06;56.35;101903.91;4811377;29;20121;-82
2021/11/17 05:05:15;;;;;;;10.70;9.40;;;;;;;17.06;56.43;101899.56;4826281;29;20484;-81
2021/11/17 05:07:52;;;;;;;11.65;9.77;;;;;;;17.06;56.76;101896.09;4826169;29;20555;-83
2021/11/17 05:11:08;;;;;;;11.43;10.23;;;;;;;17.05;56.44;101900.44;4811492;29;20030;-81
2021/11/17 05:13:49;;;;;;;11.25;9.05;;;;;;;17.05;56.60;101904.75;4777274;29;20143;-83
2021/11/17 05:16:35;;;;;;;11.93;9.82;;;;;;;17.06;56.43;101903.91;4811467;29;20098;-83
2021/11/17 05:19:25;;;;;;;10.82;9.73;;;;;;;17.05;56.54;101904.75;4797273;29;20030;-82
2021/11/17 05:22:15;;;;;;;11.63;9.45;;;;;;;17.05;56.37;101900.44;4813057;29;20384;-80
2021/11/17 05:25:08;;;;;;;10.60;9.02;;;;;;;17.04;56.67;101901.28;4811118;29;20042;-82
2021/11/17 05:27:45;;;;;;;11.57;10.07;;;;;;;17.04;56.49;101914.28;4812254;29;20030;-82
2021/11/17 05:30:17;;;;;;;10.73;9.63;;;;;;;17.04;56.51;101911.66;4825721;29;20034;-83
2021/11/17 05:33:08;;;;;;;11.15;9.10;;;;;;;17.05;56.30;101907.38;4825490;29;20127;-83
2021/11/17 05:36:01;;;;;;;10.48;9.25;;;;;;;17.03;56.63;101909.94;4825472;29;20042;-83
2021/11/17 05:38:32;;;;;;;10.40;9.25;;;;;;;17.05;56.52;101907.38;4810609;29;20373;-82
2021/11/17 05:41:13;;;;;;;11.05;9.85;;;;;;;17.04;56.54;101897.81;4825545;29;20428;-82
2021/11/17 05:43:54;;;;;;;11.20;9.95;;;;;;;17.05;56.48;101899.56;4811358;29;20056;-83
2021/11/17 05:46:41;;;;;;;12.30;9.60;;;;;;;17.05;56.52;101895.22;4825420;29;20030;-80
2021/11/17 05:49:45;;;;;;;11.38;10.05;;;;;;;17.04;56.75;101898.66;4826709;29;20034;-79
2021/11/17 05:52:29;;;;;;;10.90;9.77;;;;;;;17.04;56.43;101898.66;4825338;29;20044;-83
2021/11/17 05:55:17;;;;;;;10.80;9.55;;;;;;;17.05;56.45;101899.56;4825267;29;20043;-82
2021/11/17 05:58:11;;;;;;;10.45;9.35;;;;;;;17.03;56.61;101906.47;4810329;29;20030;-81
2021/11/17 06:00:42;;;;;;;10.68;9.57;;;;;;;17.05;56.53;101909.97;4796104;29;20030;-82
2021/11/17 06:03:24;;;;;;;11.10;9.90;;;;;;;17.04;56.60;101910.81;4825244;29;20038;-81
2021/11/17 06:05:50;;;;;;;11.25;9.45;;;;;;;17.05;56.58;101899.56;4810771;29;20037;-82
2021/11/17 06:08:15;;;;;;;12.17;9.90;;;;;;;17.02;56.54;101895.19;4824659;29;20035;-82
2021/11/17 06:10:49;;;;;;;11.13;9.30;;;;;;;17.02;56.48;101902.97;4825163;29;20268;-86
2021/11/17 06:13:16;;;;;;;12.63;9.85;;;;;;;17.03;56.68;101904.75;4810267;29;20271;-83
2021/11/17 06:15:43;;;;;;;15.60;10.77;;;;;;;17.06;56.98;101904.75;4809845;29;20488;-77
2021/11/17 06:18:13;;;;;;;15.70;11.35;;;;;;;17.06;56.50;101917.75;4795012;29;20038;-76
2021/11/17 06:20:39;;;;;;;13.68;10.55;;;;;;;17.06;56.89;101917.75;4826093;29;20034;-78
2021/11/17 06:23:10;;;;;;;13.45;10.30;;;;;;;17.08;56.97;101914.31;4809724;29;20027;-81
2021/11/17 06:25:40;;;;;;;16.10;10.38;;;;;;;17.09;57.30;101916.06;4809669;29;20037;-81
2021/11/17 06:28:07;;;;;;;14.20;9.93;;;;;;;17.10;57.45;101910.88;4824548;29;20038;-79
2021/11/17 06:30:36;;;;;;;15.90;10.55;;;;;;;17.10;57.44;101908.28;4819939;29;20407;-81
2021/11/17 06:33:02;;;;;;;12.73;9.88;;;;;;;17.11;57.41;101915.19;4806707;29;20391;-78
2021/11/17 06:35:31;;;;;;;14.27;9.75;;;;;;;17.13;57.34;101915.22;4791435;29;20122;-78
2021/11/17 06:37:56;;;;;;;14.65;9.73;;;;;;;17.12;57.57;101910.91;4807761;29;20087;-77
2021/11/17 06:40:22;;;;;;;12.85;9.68;;;;;;;17.14;57.50;101909.19;4776486;29;20438;-77
2021/11/17 06:42:54;;;;;;;13.05;10.07;;;;;;;17.15;57.58;101909.19;4806265;29;20093;-84
2021/11/17 06:45:36;;;;;;;14.43;9.77;;;;;;;17.16;57.79;101907.44;4807839;29;20031;-84
2021/11/17 06:48:02;;;;;;;11.80;9.60;;;;;;;17.16;57.70;101917.84;4791389;29;20060;-82
2021/11/17 06:50:27;;;;;;;12.82;10.30;;;;;;;17.16;57.63;101920.44;4791409;29;20035;-84
2021/11/17 06:52:53;;;;;;;13.80;9.57;;;;;;;17.17;57.69;101917.00;4806281;29;20027;-84
2021/11/17 06:55:19;;;;;;;12.93;9.20;;;;;;;17.16;57.71;101918.75;4791563;29;20058;-82
2021/11/17 06:57:45;;;;;;;10.98;9.30;;;;;;;17.17;57.54;101930.88;4776941;29;20373;-86
2021/11/17 07:00:13;;;;;;;11.75;9.27;;;;;;;17.18;57.81;101935.22;4791731;29;20034;-87
2021/11/17 07:02:39;;;;;;;10.85;9.13;;;;;;;17.18;57.90;101927.44;4801488;29;20515;-84
2021/11/17 07:05:05;;;;;;;12.45;9.13;;;;;;;17.19;58.05;101926.56;4810481;29;20038;-90
2021/11/17 07:07:31;;;;;;;12.00;9.52;;;;;;;17.19;57.91;101930.91;4777081;29;20046;-84
2021/11/17 07:09:56;;;;;;;11.25;8.80;;;;;;;17.19;57.77;101930.91;4776351;29;20071;-82
2021/11/17 07:12:23;;;;;;;10.23;8.60;;;;;;;17.20;57.55;101935.22;4791509;29;20392;-82
2021/11/17 07:14:48;;;;;;;12.32;9.52;;;;;;;17.20;57.68;101930.91;4813069;29;20042;-82
2021/11/17 07:17:14;;;;;;;11.25;8.85;;;;;;;17.20;57.84;101930.03;4798377;29;20031;-82
2021/11/17 07:19:42;;;;;;;11.07;9.18;;;;;;;17.21;57.88;101927.44;4794230;29;20389;-82
2021/11/17 07:22:09;;;;;;;10.70;8.60;;;;;;;17.22;57.79;101939.63;4791840;29;20079;-83
2021/11/17 07:24:35;;;;;;;10.40;8.88;;;;;;;17.22;57.75;101939.63;4805930;29;20400;-85
2021/11/17 07:27:01;;;;;;;12.02;8.90;;;;;;;17.22;57.87;101947.41;4805862;29;20031;-86
2021/11/17 07:29:28;;;;;;;10.98;8.90;;;;;;;17.25;57.93;101949.16;4806002;29;20369;-81
2021/11/17 07:31:53;;;;;;;10.95;8.77;;;;;;;17.24;58.17;101947.41;4790698;29;20082;-82
2021/11/17 07:34:19;;;;;;;11.43;8.70;;;;;;;17.25;57.85;101962.19;4808653;29;20084;-79
2021/11/17 07:36:46;;;;;;;10.07;8.65;;;;;;;17.35;58.16;101961.38;4808430;29;20061;-75
2021/11/17 07:39:14;;;;;;;10.38;8.90;;;;;;;17.38;57.97;101957.97;4823437;29;20125;-74
2021/11/17 07:41:41;;;;;;;13.52;8.45;;;;;;;17.41;57.99;101958.84;4808314;29;20030;-76
2021/11/17 07:44:07;;;;;;;9.80;8.32;;;;;;;17.46;57.85;101958.88;4823647;29;20037;-76
2021/11/17 07:46:32;;;;;;;11.48;8.10;;;;;;;17.49;57.46;101964.13;4823494;29;20038;-76
2021/11/17 07:48:57;;;;;;;10.63;8.10;;;;;;;17.51;57.71;101961.53;4823593;29;20037;-75
2021/11/17 07:51:23;;;;;;;12.73;8.15;;;;;;;17.53;57.86;101972.81;4793425;29;20431;-75
2021/11/17 07:53:49;;;;;;;11.57;9.10;;;;;;;17.54;57.74;101978.03;4823518;29;20034;-75
2021/11/17 07:56:15;;;;;;;9.73;8.38;;;;;;;17.57;57.57;101974.59;4808427;29;20042;-75
2021/11/17 07:58:43;;;;;;;10.00;8.43;;;;;;;17.53;57.85;101981.53;4824712;29;20030;-74
2021/11/17 08:01:10;;;;;;;11.63;8.75;;;;;;;17.53;57.73;101984.13;4823279;29;20018;-75
2021/11/17 08:03:38;;;;;;;11.00;8.05;;;;;;;17.56;57.71;101996.28;4793352;29;20396;-77
2021/11/17 08:06:06;;;;;;;9.45;7.97;;;;;;;17.53;57.98;101989.31;4823306;29;20022;-85
2021/11/17 08:08:31;;;;;;;9.50;8.20;;;;;;;17.53;57.88;101997.13;4793174;29;20065;-81
2021/11/17 08:10:58;;;;;;;10.90;8.05;;;;;;;17.53;57.63;101996.25;4808167;29;20066;-83
2021/11/17 08:13:24;;;;;;;8.93;7.82;;;;;;;17.54;57.76;101995.41;4808134;29;20026;-81
2021/11/17 08:15:49;;;;;;;9.13;7.43;;;;;;;17.54;57.67;101998.00;4793182;29;20037;-80
2021/11/17 08:18:15;;;;;;;10.60;7.70;;;;;;;17.57;57.77;102000.63;4793024;29;20441;-76
2021/11/17 08:20:40;;;;;;;8.07;7.07;;;;;;;17.57;57.64;102005.81;4807959;29;20062;-76
2021/11/17 08:23:06;;;;;;;8.98;7.45;;;;;;;17.58;57.53;102010.19;4807882;29;20026;-75
2021/11/17 08:25:34;;;;;;;7.63;6.82;;;;;;;17.60;57.67;102011.06;4807831;29;20042;-77
2021/11/17 08:28:01;;;;;;;9.07;7.00;;;;;;;17.60;57.71;102021.50;4823167;29;20030;-76
2021/11/17 08:30:29;;;;;;;8.48;6.63;;;;;;;17.61;57.67;102013.66;4803529;29;20548;-76
2021/11/17 08:32:55;;;;;;;9.05;6.40;;;;;;;17.62;57.40;102020.63;4809206;29;20031;-76
2021/11/17 08:35:23;;;;;;;8.20;6.75;;;;;;;17.66;57.83;102021.56;4808492;29;20037;-76
2021/11/17 08:37:50;;;;;;;9.35;6.80;;;;;;;17.67;57.44;102016.34;4809584;29;20374;-75
2021/11/17 08:40:37;;;;;;;7.00;6.07;;;;;;;17.67;57.47;102010.25;4793348;29;20045;-76
2021/11/17 08:43:04;;;;;;;7.60;6.30;;;;;;;17.67;57.65;102018.94;4793038;29;20038;-75
2021/11/17 08:45:30;;;;;;;7.32;6.10;;;;;;;17.67;57.63;102012.88;4808228;29;20125;-80
2021/11/17 08:47:56;;;;;;;7.18;5.88;;;;;;;17.66;57.63;102027.63;4793465;29;20460;-81
2021/11/17 08:50:25;;;;;;;6.10;5.45;;;;;;;17.67;57.58;102028.47;4808436;29;20396;-79
2021/11/17 08:52:51;;;;;;;7.07;5.68;;;;;;;17.67;57.75;102026.75;4809229;29;20035;-82
2021/11/17 08:55:17;;;;;;;8.20;5.50;;;;;;;17.67;57.56;102028.47;4778206;29;20122;-81
2021/11/17 08:57:43;;;;;;;8.05;5.97;;;;;;;17.66;57.72;102025.00;4793189;29;20129;-80
2021/11/17 09:00:11;;;;;;;8.00;5.60;;;;;;;17.69;57.58;102035.44;4808158;29;20512;-82
2021/11/17 09:02:43;;;;;;;7.28;5.68;;;;;;;17.69;57.71;102037.19;4792893;29;20493;-82
2021/11/17 09:05:11;;;;;;;6.90;5.43;;;;;;;17.68;57.77;102033.72;4807882;29;20113;-82
2021/11/17 09:07:39;;;;;;;7.00;5.32;;;;;;;17.67;57.75;102051.91;4792908;29;20035;-82
2021/11/17 09:10:05;;;;;;;7.47;5.30;;;;;;;17.66;57.89;102052.78;4807838;29;20031;-81
2021/11/17 09:12:30;;;;;;;7.47;5.43;;;;;;;17.65;57.81;102049.28;4792872;29;20210;-78
2021/11/17 09:14:55;;;;;;;6.65;5.22;;;;;;;17.65;57.72;102056.22;4778004;29;20027;-82
2021/11/17 09:17:22;;;;;;;6.80;5.30;;;;;;;17.63;57.99;102053.59;4778003;29;20091;-82
2021/11/17 09:19:47;;;;;;;6.38;5.35;;;;;;;17.64;57.99;102057.09;4792726;29;20092;-80
2021/11/17 09:22:13;;;;;;;7.68;5.43;;;;;;;17.63;57.84;102061.41;4777881;29;20030;-79
2021/11/17 09:24:38;;;;;;;6.78;4.78;;;;;;;17.62;57.86;102057.06;4793016;29;20031;-84
2021/11/17 09:27:05;;;;;;;5.60;4.70;;;;;;;17.63;58.05;102063.16;4763188;29;20073;-81
2021/11/17 09:29:33;;;;;;;7.32;5.10;;;;;;;17.62;57.98;102064.03;4778643;29;20035;-81
2021/11/17 09:32:00;;;;;;;6.90;5.13;;;;;;;17.61;57.75;102068.34;4805794;29;20046;-80
2021/11/17 09:34:25;;;;;;;8.00;4.88;;;;;;;17.63;57.83;102068.34;4793884;29;20138;-83
2021/11/17 09:36:50;;;;;;;6.10;5.07;;;;;;;17.62;57.83;102067.50;4792611;29;20123;-82
2021/11/17 09:39:16;;;;;;;6.50;4.65;;;;;;;17.65;57.97;102071.84;4807822;29;20054;-84
2021/11/17 09:41:49;;;;;;;5.30;4.55;;;;;;;17.66;57.54;102076.22;4808546;29;20062;-81
2021/11/17 09:44:24;;;;;;;;;;;;;;;17.67;57.55;102084.00;4796123;29;20027;-80
2021/11/17 09:46:50;;;;;;;6.60;5.03;;;;;;;17.69;57.80;102086.66;4807886;29;20363;-81
2021/11/17 09:49:27;;;;;;;8.70;4.97;;;;;;;17.72;57.66;102086.66;4777912;29;20141;-84
2021/11/17 09:51:59;;;;;;;6.45;4.30;;;;;;;17.74;57.74;102092.75;4807384;29;20085;-84
2021/11/17 09:54:55;;;;;;;11.38;4.75;;;;;;;17.75;58.00;102097.13;4808647;29;20084;-82
2021/11/17 09:57:28;;;;;;;7.25;4.97;;;;;;;17.72;57.76;102099.69;4807185;29;20027;-83
2021/11/17 09:59:58;;;;;;;6.32;4.60;;;;;;;17.70;57.67;102093.59;4792210;29;20054;-82
2021/11/17 10:02:55;;;;;;;5.57;4.50;;;;;;;17.71;57.88;102094.47;4807070;29;20102;-84
2021/11/17 10:05:41;;;;;;;6.95;4.40;;;;;;;17.73;57.89;102098.84;4790484;29;20047;-83
2021/11/17 10:13:58;;;;;;;5.78;4.47;;;;;;;17.72;57.85;102106.63;4808537;29;20058;-82
2021/11/17 10:16:25;;;;;;;8.50;4.47;;;;;;;17.71;57.84;102115.31;4808135;29;20562;-83
2021/11/17 10:19:11;;;;;;;6.07;3.95;;;;;;;17.67;57.81;102117.00;4792027;29;20038;-82
2021/11/17 10:21:37;;;;;;;7.28;4.40;;;;;;;17.64;57.73;102123.06;4792000;29;20041;-85
2021/11/17 10:24:10;;;;;;;6.95;4.32;;;;;;;17.64;57.89;102120.44;4807434;29;20555;-84
2021/11/17 10:27:02;;;;;;;6.30;4.18;;;;;;;17.65;57.74;102126.50;4808008;29;20035;-84
2021/11/17 10:29:43;;;;;;;6.05;4.00;;;;;;;17.66;57.70;102129.16;4791624;29;20039;-82
2021/11/17 10:32:32;;;;;;;5.38;3.90;;;;;;;17.72;57.79;102127.44;4791178;29;20054;-82
2021/11/17 10:35:11;;;;;;;5.07;4.07;;;;;;;17.77;57.61;102126.66;4806402;29;20121;-81
2021/11/17 10:37:43;;;;;;;5.50;3.92;;;;;;;17.78;57.31;102122.31;4806638;29;20470;-81
2021/11/17 10:40:44;;;;;;;5.15;3.97;;;;;;;17.80;57.39;102125.81;4806420;29;20058;-82
2021/11/17 10:43:20;;;;;;;5.50;3.38;;;;;;;17.80;57.36;102126.69;4791261;29;20075;-81
2021/11/17 10:45:57;;;;;;;4.93;3.65;;;;;;;17.83;57.48;102128.47;4791323;29;20489;-83
2021/11/17 10:48:35;;;;;;;4.60;3.72;;;;;;;17.85;57.17;102135.44;4791275;29;20073;-82
2021/11/17 10:51:21;;;;;;;5.07;3.42;;;;;;;17.87;57.19;102130.25;4791156;29;20088;-81
2021/11/17 10:53:53;;;;;;;5.30;3.85;;;;;;;17.87;57.04;102128.50;4806184;29;20027;-80
2021/11/17 10:56:22;;;;;;;5.43;3.72;;;;;;;17.94;57.06;102136.38;4805544;29;20042;-80
2021/11/17 10:58:53;;;;;;;5.30;3.60;;;;;;;17.94;57.16;102142.47;4807192;29;20102;-82
2021/11/17 11:01:24;;;;;;;6.10;3.75;;;;;;;17.92;57.19;102141.59;4790883;29;20022;-82
2021/11/17 11:03:57;;;;;;;5.38;3.60;;;;;;;17.94;57.23;102136.38;4805897;29;20035;-85
2021/11/17 11:06:27;;;;;;;5.20;3.60;;;;;;;17.97;57.02;102139.91;4806006;29;20031;-82
2021/11/17 11:08:57;;;;;;;5.63;3.72;;;;;;;17.95;56.93;102136.41;4805835;29;20070;-83
2021/11/17 11:11:24;;;;;;;5.68;3.58;;;;;;;17.91;57.11;102134.63;4805843;29;20122;-82
2021/11/17 11:13:55;;;;;;;6.72;3.80;;;;;;;17.89;57.34;102128.53;4790863;29;20492;-82
2021/11/17 11:16:39;;;;;;;5.55;3.65;;;;;;;17.86;57.37;102137.19;4805705;29;20125;-82
2021/11/17 11:19:10;;;;;;;5.90;3.55;;;;;;;17.88;57.25;102137.22;4807117;29;20113;-80
2021/11/17 11:21:58;;;;;;;4.85;3.40;;;;;;;17.86;57.40;102138.94;4805845;29;20614;-77
2021/11/17 11:24:40;;;;;;;5.00;3.58;;;;;;;17.84;57.42;102146.72;4805727;29;20042;-80
2021/11/17 11:27:05;;;;;;;5.72;3.47;;;;;;;17.85;57.34;102144.97;4790625;29;20019;-83
2021/11/17 11:29:33;;;;;;;7.85;3.80;;;;;;;17.84;57.35;102141.50;4805588;29;20027;-80
2021/11/17 11:32:00;;;;;;;8.15;3.85;;;;;;;17.85;57.24;102143.25;4805349;29;20050;-81
2021/11/17 11:34:34;;;;;;;5.25;3.50;;;;;;;17.86;57.50;102138.94;4806807;29;20062;-79
2021/11/17 11:37:02;;;;;;;6.07;3.63;;;;;;;17.86;57.33;102146.75;4790315;29;20057;-79
2021/11/17 11:39:31;;;;;;;6.05;3.30;;;;;;;17.87;57.59;102138.06;4790279;29;20396;-77
2021/11/17 11:42:09;;;;;;;5.70;3.20;;;;;;;17.87;57.69;102146.72;4806575;29;20035;-76
2021/11/17 11:44:38;;;;;;;5.10;3.42;;;;;;;17.89;57.48;102142.41;4805350;29;20175;-76
2021/11/17 11:47:03;;;;;;;6.35;3.78;;;;;;;17.94;57.37;102144.19;4790320;29;20027;-76
2021/11/17 11:49:55;;;;;;;7.15;3.90;;;;;;;17.93;57.63;102151.16;4806503;29;20037;-76
2021/11/17 11:52:20;;;;;;;6.25;3.67;;;;;;;17.94;57.32;102152.00;4806378;29;20400;-76
2021/11/17 11:54:53;;;;;;;6.80;3.80;;;;;;;17.96;57.32;102155.50;4805321;29;20035;-75
2021/11/17 11:57:36;;;;;;;6.03;3.60;;;;;;;17.94;57.47;102159.81;4805660;29;20476;-76
2021/11/17 12:00:13;;;;;;;5.73;3.63;;;;;;;17.92;57.39;102177.16;4805501;29;20095;-78
2021/11/17 12:03:10;;;;;;;6.88;3.58;;;;;;;17.89;57.54;102171.06;4806319;29;20027;-79
2021/11/17 12:05:35;;;;;;;5.40;3.58;;;;;;;17.89;57.59;102178.88;4786325;29;20039;-79
2021/11/17 12:08:25;;;;;;;5.75;3.60;;;;;;;17.89;57.59;102178.00;4804955;29;20041;-77
2021/11/17 12:11:13;;;;;;;6.10;3.35;;;;;;;17.87;57.85;102180.59;4790080;29;20030;-76
2021/11/17 12:13:43;;;;;;;6.00;3.28;;;;;;;17.86;57.72;102176.25;4790486;29;20061;-77
2021/11/17 12:16:34;;;;;;;8.10;3.88;;;;;;;17.87;57.54;102182.31;4805714;29;20196;-76
2021/11/17 12:19:05;;;;;;;4.80;3.20;;;;;;;17.87;57.57;102188.41;4790125;29;20027;-76
2021/11/17 12:21:43;;;;;;;7.45;3.17;;;;;;;17.87;57.84;102185.78;4804819;29;20035;-75
2021/11/17 12:24:24;;;;;;;6.50;3.10;;;;;;;17.87;57.93;102177.97;4804740;29;20385;-75
2021/11/17 12:27:05;;;;;;;6.65;3.10;;;;;;;17.89;57.60;102180.63;4805930;29;20050;-76
2021/11/17 12:29:40;;;;;;;5.60;3.28;;;;;;;17.86;57.56;102184.06;4804660;29;20424;-75
2021/11/17 12:32:15;;;;;;;7.20;3.30;;;;;;;17.87;57.61;102184.94;4812819;29;20475;-75
2021/11/17 12:35:18;;;;;;;6.22;3.42;;;;;;;17.86;57.53;102178.84;4823104;29;20058;-75
2021/11/17 12:37:53;;;;;;;5.53;3.50;;;;;;;17.85;57.62;102184.91;4823175;29;20087;-75
2021/11/17 12:40:41;;;;;;;6.68;3.17;;;;;;;17.86;57.50;102185.81;4822951;29;20503;-76
2021/11/17 12:43:12;;;;;;;6.05;3.10;;;;;;;17.85;57.69;102184.03;4807736;29;20125;-76
2021/11/17 12:45:46;;;;;;;5.15;3.00;;;;;;;17.86;57.60;102196.22;4807549;29;20030;-76
2021/11/17 12:48:11;;;;;;;;;;;;;;;17.85;57.52;102192.72;4824303;29;20026;-75
2021/11/17 12:50:45;;;;;;;6.97;3.20;;;;;;;17.85;57.53;102203.13;4823958;29;20278;-75
2021/11/17 12:53:21;;;;;;;;;;;;;;;17.86;57.43;102211.84;4824483;29;20034;-75
2021/11/17 12:56:06;;;;;;;8.52;3.10;;;;;;;17.87;57.38;102213.56;4822820;29;19985;-75
2021/11/17 12:58:38;;;;;;;5.10;2.58;;;;;;;17.86;57.40;102210.09;4822783;29;20030;-74
2021/11/17 13:01:10;;;;;;;5.35;2.83;;;;;;;17.86;57.54;102210.09;4807491;29;20023;-75
2021/11/17 13:03:47;;;;;;;4.80;2.65;;;;;;;17.86;57.44;102215.31;4822925;29;20098;-75
2021/11/17 13:06:41;;;;;;;5.88;2.80;;;;;;;17.86;57.34;102212.72;4822532;29;20026;-75
2021/11/17 13:09:15;;;;;;;5.72;2.78;;;;;;;17.89;57.44;102219.69;4822551;29;20373;-75
2021/11/17 13:12:06;;;;;;;4.93;3.03;;;;;;;17.87;57.52;102214.44;4822844;29;20042;-75
2021/11/17 13:14:54;;;;;;;6.15;3.10;;;;;;;17.87;57.45;102211.84;4822617;29;20126;-75
2021/11/17 13:17:42;;;;;;;4.35;2.47;;;;;;;17.89;57.26;102210.13;4807785;29;20031;-75
2021/11/17 13:20:13;;;;;;;7.78;3.20;;;;;;;17.90;57.31;102205.81;4825362;29;20037;-76
2021/11/17 13:22:44;;;;;;;6.00;2.60;;;;;;;17.90;57.23;102208.41;4825767;29;20034;-75
2021/11/17 13:25:10;;;;;;;5.80;2.50;;;;;;;17.92;57.15;102205.81;4810549;29;20121;-76
2021/11/17 13:27:40;;;;;;;5.10;2.78;;;;;;;17.92;57.08;102201.50;4825518;29;20487;-76
2021/11/17 13:30:08;;;;;;;4.38;2.60;;;;;;;17.92;57.15;102208.41;4810503;29;20042;-75
2021/11/17 13:32:38;;;;;;;5.15;2.83;;;;;;;17.92;57.16;102209.31;4814834;29;20047;-75
2021/11/17 13:36:07;;;;;;;6.57;2.65;;;;;;;17.92;57.00;102213.63;4807561;29;20046;-76
2021/11/17 13:38:35;;;;;;;6.55;2.80;;;;;;;17.92;57.01;102214.53;4805926;29;20045;-76
2021/11/17 13:41:05;;;;;;;5.15;2.47;;;;;;;17.89;57.05;102204.91;4807362;29;20054;-75
2021/11/17 13:43:32;;;;;;;4.20;2.50;;;;;;;17.88;57.25;102205.78;4792257;29;20057;-77
2021/11/17 13:46:03;;;;;;;6.22;2.58;;;;;;;17.87;57.10;102211.84;4792213;29;20035;-75
2021/11/17 13:48:32;;;;;;;5.07;2.67;;;;;;;17.92;57.08;102219.72;4792094;29;20388;-75
2021/11/17 13:50:58;;;;;;;8.68;2.78;;;;;;;17.99;57.18;102228.47;4807191;29;20091;-74
2021/11/17 13:53:25;;;;;;;4.22;2.30;;;;;;;18.10;56.61;102229.47;4808312;29;20039;-75
2021/11/17 13:55:55;;;;;;;4.30;2.60;;;;;;;18.20;56.53;102236.50;4807108;29;20481;-75
2021/11/17 13:58:21;;;;;;;4.70;2.30;;;;;;;18.22;56.14;102237.38;4806947;29;20076;-75
2021/11/17 14:00:47;;;;;;;6.75;2.58;;;;;;;18.19;56.22;102226.94;4776980;29;20055;-75
2021/11/17 14:03:12;;;;;;;3.67;2.03;;;;;;;18.18;56.44;102232.13;4791888;29;20023;-75
2021/11/17 14:05:40;;;;;;;4.55;2.30;;;;;;;18.14;56.71;102241.66;4776991;29;20042;-76
2021/11/17 14:08:10;;;;;;;4.47;2.50;;;;;;;18.13;56.69;102244.25;4791839;29;20026;-76
2021/11/17 14:10:37;;;;;;;5.85;2.63;;;;;;;18.12;56.68;102238.16;4791733;29;20511;-75
2021/11/17 14:13:03;;;;;;;4.35;2.40;;;;;;;18.13;56.81;102239.03;4806591;29;20033;-82
2021/11/17 14:15:29;;;;;;;4.88;2.25;;;;;;;18.11;56.71;102239.00;4791793;29;20584;-83
2021/11/17 14:17:55;;;;;;;5.65;2.35;;;;;;;18.10;56.74;102242.50;4777013;29;20125;-81
2021/11/17 14:20:22;;;;;;;5.22;2.10;;;;;;;18.12;56.62;102245.97;4806866;29;20396;-82
2021/11/17 14:22:47;;;;;;;3.90;2.10;;;;;;;18.11;56.78;102246.81;4791898;29;20510;-81
2021/11/17 14:25:19;;;;;;;3.78;1.92;;;;;;;18.10;56.53;102250.31;4807998;29;20035;-81
2021/11/17 14:27:50;;;;;;;6.60;2.30;;;;;;;18.11;56.77;102246.81;4791409;29;20484;-76
2021/11/17 14:30:47;;;;;;;5.30;2.10;;;;;;;18.09;56.72;102241.63;4791459;29;20041;-76
2021/11/17 14:33:20;;;;;;;4.53;2.17;;;;;;;18.12;56.83;102250.31;4807851;29;20519;-76